Time;durP1;ratioP1;P1;durP2;ratioP2;P2;SDS_P1;SDS_P2;PMS_P1;PMS_P2;Temp;Humidity;BMP_temperature;BMP_pressure;BME280_temperature;BME280_humidity;BME280_pressure;Samples;Min_cycle;Max_cycle;Signal;HPM_P1;HPM_P2
2024/04/16 00:01:59;;;;;;;1.95;1.80;;;;;;;;;;5485302;26;20282;-58
2024/04/16 00:04:27;;;;;;;2.25;2.05;;;;;;;;;;5487416;26;20712;-58
2024/04/16 00:06:53;;;;;;;3.17;2.00;;;;;;;;;;5484967;26;20235;-59
2024/04/16 00:09:21;;;;;;;2.40;2.08;;;;;;;;;;5487680;26;20792;-58
2024/04/16 00:11:46;;;;;;;2.20;2.00;;;;;;;;;;5485006;26;20266;-59
2024/04/16 00:14:15;;;;;;;2.78;2.28;;;;;;;;;;5487248;26;20339;-58
2024/04/16 00:16:40;;;;;;;2.08;1.98;;;;;;;;;;5484702;26;20739;-58
2024/04/16 00:19:11;;;;;;;2.83;2.15;;;;;;;;;;5487292;26;20243;-58
2024/04/16 00:21:37;;;;;;;2.42;1.90;;;;;;;;;;5485004;26;20223;-57
2024/04/16 00:24:05;;;;;;;1.83;1.70;;;;;;;;;;5487705;26;20234;-59
2024/04/16 00:26:30;;;;;;;4.38;2.20;;;;;;;;;;5485208;26;20282;-58
2024/04/16 00:28:59;;;;;;;3.47;2.38;;;;;;;;;;5487494;26;20339;-58
2024/04/16 00:31:24;;;;;;;2.63;2.40;;;;;;;;;;5484886;26;20307;-58
2024/04/16 00:33:52;;;;;;;2.53;2.33;;;;;;;;;;5486750;26;20664;-58
2024/04/16 00:36:21;;;;;;;1.85;1.73;;;;;;;;;;5421101;26;20382;-58
2024/04/16 00:38:49;;;;;;;2.90;2.08;;;;;;;;;;5487161;26;20231;-59
2024/04/16 00:41:14;;;;;;;1.98;1.67;;;;;;;;;;5484090;26;20239;-58
2024/04/16 00:43:43;;;;;;;1.73;1.63;;;;;;;;;;5487124;26;20285;-59
2024/04/16 00:46:08;;;;;;;3.30;2.08;;;;;;;;;;5484162;26;20777;-58
2024/04/16 00:48:37;;;;;;;2.88;1.90;;;;;;;;;;5486613;26;20230;-57
2024/04/16 00:51:02;;;;;;;1.75;1.60;;;;;;;;;;5484162;26;20723;-59
2024/04/16 00:53:34;;;;;;;1.83;1.73;;;;;;;;;;5486523;26;20316;-58
2024/04/16 00:55:59;;;;;;;3.03;2.05;;;;;;;;;;5484127;26;20223;-58
2024/04/16 00:58:28;;;;;;;1.98;1.85;;;;;;;;;;5486674;26;20289;-58
2024/04/16 01:00:53;;;;;;;2.42;2.05;;;;;;;;;;5484301;26;20277;-59
2024/04/16 01:03:22;;;;;;;3.47;2.00;;;;;;;;;;5486536;26;20282;-59
2024/04/16 01:05:47;;;;;;;2.95;2.35;;;;;;;;;;5483893;26;20356;-58
2024/04/16 01:08:16;;;;;;;2.78;2.08;;;;;;;;;;5486477;26;20242;-57
2024/04/16 01:10:44;;;;;;;2.25;2.05;;;;;;;;;;5484315;26;20227;-57
2024/04/16 01:13:12;;;;;;;2.70;2.33;;;;;;;;;;5486210;26;20577;-59
2024/04/16 01:15:38;;;;;;;2.20;1.90;;;;;;;;;;5422004;26;20269;-58
2024/04/16 01:18:07;;;;;;;3.08;2.20;;;;;;;;;;5486285;26;20634;-58
2024/04/16 01:20:33;;;;;;;2.17;1.98;;;;;;;;;;5421992;26;20227;-57
2024/04/16 01:23:03;;;;;;;2.13;1.92;;;;;;;;;;5486606;26;20286;-57
2024/04/16 01:25:30;;;;;;;2.75;2.15;;;;;;;;;;5483781;26;20214;-56
2024/04/16 01:27:58;;;;;;;2.00;1.85;;;;;;;;;;5486489;26;20227;-57
2024/04/16 01:30:24;;;;;;;2.67;1.95;;;;;;;;;;5483748;26;20227;-58
2024/04/16 01:32:52;;;;;;;2.20;2.00;;;;;;;;;;5486159;26;20347;-58
2024/04/16 01:35:17;;;;;;;1.73;1.48;;;;;;;;;;5483501;26;20731;-57
2024/04/16 01:37:45;;;;;;;2.97;1.90;;;;;;;;;;5486155;26;20298;-58
2024/04/16 01:40:14;;;;;;;2.20;1.55;;;;;;;;;;5420583;26;20265;-58
2024/04/16 01:42:42;;;;;;;2.42;2.03;;;;;;;;;;5486639;26;20231;-58
2024/04/16 01:45:07;;;;;;;3.55;1.95;;;;;;;;;;5483193;26;20281;-58
2024/04/16 01:47:36;;;;;;;1.67;1.58;;;;;;;;;;5486124;26;20234;-58
2024/04/16 01:50:01;;;;;;;2.50;2.30;;;;;;;;;;5483290;26;20272;-58
2024/04/16 01:52:29;;;;;;;3.28;2.15;;;;;;;;;;5485403;26;20692;-59
2024/04/16 01:54:55;;;;;;;2.80;1.95;;;;;;;;;;5483204;26;20334;-57
2024/04/16 01:57:26;;;;;;;2.97;2.05;;;;;;;;;;5485852;26;20790;-58
2024/04/16 01:59:51;;;;;;;2.20;2.00;;;;;;;;;;5483430;26;20230;-59
2024/04/16 02:02:20;;;;;;;2.05;1.92;;;;;;;;;;5485803;26;20353;-58
2024/04/16 02:04:46;;;;;;;2.00;1.88;;;;;;;;;;5483646;26;20269;-57
2024/04/16 02:07:14;;;;;;;2.10;1.90;;;;;;;;;;5422378;26;20314;-58
2024/04/16 02:09:39;;;;;;;1.95;1.70;;;;;;;;;;5483446;26;20231;-57
2024/04/16 02:12:08;;;;;;;2.03;1.90;;;;;;;;;;5485500;26;20277;-58
2024/04/16 02:14:36;;;;;;;2.00;1.90;;;;;;;;;;5482989;26;21034;-56
2024/04/16 02:17:04;;;;;;;2.08;1.75;;;;;;;;;;5485424;26;20880;-58
2024/04/16 02:19:30;;;;;;;2.75;2.22;;;;;;;;;;5482797;26;20306;-58
2024/04/16 02:21:58;;;;;;;1.90;1.80;;;;;;;;;;5485750;26;20223;-57
2024/04/16 02:24:25;;;;;;;2.47;2.00;;;;;;;;;;5482716;26;20273;-58
2024/04/16 02:26:54;;;;;;;2.15;1.80;;;;;;;;;;5485418;26;20227;-58
2024/04/16 02:29:19;;;;;;;2.63;2.00;;;;;;;;;;5482610;26;20231;-58
2024/04/16 02:31:50;;;;;;;2.03;1.90;;;;;;;;;;5422092;26;20274;-57
2024/04/16 02:34:16;;;;;;;3.50;2.30;;;;;;;;;;5482912;26;20352;-59
2024/04/16 02:36:45;;;;;;;2.35;1.90;;;;;;;;;;5485187;26;20290;-58
2024/04/16 02:39:10;;;;;;;2.20;2.00;;;;;;;;;;5482923;26;20227;-59
2024/04/16 02:41:38;;;;;;;2.35;1.92;;;;;;;;;;5485311;26;20223;-58
2024/04/16 02:44:04;;;;;;;2.60;2.17;;;;;;;;;;5420753;26;20379;-58
2024/04/16 02:46:32;;;;;;;2.97;2.05;;;;;;;;;;5484915;26;20250;-56
2024/04/16 02:49:00;;;;;;;3.35;2.30;;;;;;;;;;5483064;26;20223;-57
2024/04/16 02:51:28;;;;;;;2.30;2.10;;;;;;;;;;5484975;26;20234;-58
2024/04/16 02:53:54;;;;;;;2.10;1.88;;;;;;;;;;5419172;26;20944;-59
2024/04/16 02:56:22;;;;;;;2.33;2.13;;;;;;;;;;5485011;26;20246;-59
2024/04/16 02:58:48;;;;;;;2.42;2.22;;;;;;;;;;5482256;26;20238;-59
2024/04/16 03:01:16;;;;;;;2.45;2.13;;;;;;;;;;5421865;26;20312;-58
2024/04/16 03:03:41;;;;;;;2.20;2.00;;;;;;;;;;5482301;26;20269;-57
2024/04/16 03:06:12;;;;;;;3.15;2.30;;;;;;;;;;5425082;26;20926;-58
2024/04/16 03:08:38;;;;;;;3.33;2.63;;;;;;;;;;5485877;26;20334;-58
2024/04/16 03:11:06;;;;;;;3.65;2.88;;;;;;;;;;5488308;26;20227;-57
2024/04/16 03:13:32;;;;;;;2.40;2.22;;;;;;;;;;5485644;26;20230;-56
2024/04/16 03:16:00;;;;;;;1.85;1.75;;;;;;;;;;5488950;26;20218;-58
2024/04/16 03:18:26;;;;;;;2.28;2.10;;;;;;;;;;5485724;26;20230;-59
2024/04/16 03:21:00;;;;;;;2.40;2.20;;;;;;;;;;5488310;26;20530;-59
2024/04/16 03:23:29;;;;;;;3.10;2.20;;;;;;;;;;5485820;26;20227;-59
2024/04/16 03:25:57;;;;;;;1.92;1.73;;;;;;;;;;5488335;26;20750;-58
2024/04/16 03:28:23;;;;;;;2.17;1.88;;;;;;;;;;5485699;26;20340;-58
2024/04/16 03:30:51;;;;;;;2.38;2.17;;;;;;;;;;5488127;26;20640;-58
2024/04/16 03:33:17;;;;;;;2.50;2.30;;;;;;;;;;5485557;26;20344;-58
2024/04/16 03:35:45;;;;;;;8.82;6.53;;;;;;;;;;5485638;26;20246;-58
2024/04/16 03:38:13;;;;;;;11.82;10.57;;;;;;;;;;5485206;26;20265;-56
2024/04/16 03:40:44;;;;;;;16.50;13.07;;;;;;;;;;5485338;26;20227;-58
2024/04/16 03:43:13;;;;;;;8.98;5.90;;;;;;;;;;5485216;26;20326;-55
2024/04/16 03:45:38;;;;;;;7.03;5.38;;;;;;;;;;5485567;26;20711;-58
2024/04/16 03:48:07;;;;;;;5.95;5.00;;;;;;;;;;5487748;26;20277;-55
2024/04/16 03:50:33;;;;;;;5.97;4.43;;;;;;;;;;5485394;26;20239;-58
2024/04/16 03:53:01;;;;;;;4.82;4.15;;;;;;;;;;5487342;26;21220;-58
2024/04/16 03:55:29;;;;;;;6.30;4.88;;;;;;;;;;5485400;26;20370;-59
2024/04/16 03:57:57;;;;;;;4.47;3.10;;;;;;;;;;5485198;26;20262;-58
2024/04/16 04:03:14;;;;;;;5.25;3.17;;;;;;;;;;5487777;26;20331;-58
2024/04/16 04:05:42;;;;;;;3.35;2.90;;;;;;;;;;5485161;26;20927;-56
2024/04/16 04:08:08;;;;;;;3.63;2.80;;;;;;;;;;5485146;26;20223;-58
2024/04/16 04:10:36;;;;;;;3.60;3.30;;;;;;;;;;5487654;26;20273;-58
2024/04/16 04:13:04;;;;;;;2.97;2.47;;;;;;;;;;5485370;26;20344;-58
2024/04/16 04:15:33;;;;;;;4.25;2.70;;;;;;;;;;5454370;26;20290;-58
2024/04/16 04:17:58;;;;;;;3.40;2.15;;;;;;;;;;5484369;26;20223;-57
2024/04/16 04:20:27;;;;;;;3.10;2.80;;;;;;;;;;5424157;26;20277;-58
2024/04/16 04:22:53;;;;;;;4.85;2.60;;;;;;;;;;5484843;26;20338;-58
2024/04/16 04:25:21;;;;;;;4.22;3.30;;;;;;;;;;5487594;26;20234;-58
2024/04/16 04:27:47;;;;;;;2.63;2.30;;;;;;;;;;5484775;26;20286;-58
2024/04/16 04:30:18;;;;;;;3.90;2.35;;;;;;;;;;5487120;26;20327;-58
2024/04/16 04:32:47;;;;;;;2.90;2.70;;;;;;;;;;5484577;26;20387;-58
2024/04/16 04:35:16;;;;;;;2.30;2.10;;;;;;;;;;5485426;26;20250;-58
2024/04/16 04:37:41;;;;;;;3.17;2.90;;;;;;;;;;5484467;26;20231;-59
2024/04/16 04:40:10;;;;;;;3.38;3.08;;;;;;;;;;5486938;26;20312;-59
2024/04/16 04:42:36;;;;;;;4.35;3.15;;;;;;;;;;5484687;26;20219;-59
2024/04/16 04:45:04;;;;;;;2.75;2.55;;;;;;;;;;5486890;26;20808;-59
2024/04/16 04:47:32;;;;;;;3.47;2.70;;;;;;;;;;5484485;26;20234;-59
2024/04/16 04:50:00;;;;;;;3.88;2.65;;;;;;;;;;5486729;26;20223;-59
2024/04/16 04:52:29;;;;;;;2.97;2.67;;;;;;;;;;5484304;26;20231;-59
2024/04/16 04:54:55;;;;;;;2.90;2.45;;;;;;;;;;5484447;26;20227;-57
2024/04/16 04:57:23;;;;;;;2.63;2.42;;;;;;;;;;5423189;26;20227;-58
2024/04/16 04:59:48;;;;;;;3.05;2.50;;;;;;;;;;5484260;26;20706;-59
2024/04/16 05:02:16;;;;;;;2.45;2.10;;;;;;;;;;5487099;26;20230;-58
2024/04/16 05:04:45;;;;;;;5.05;3.10;;;;;;;;;;5484298;26;20337;-58
2024/04/16 05:07:13;;;;;;;2.03;1.92;;;;;;;;;;5486469;26;20231;-58
2024/04/16 05:09:39;;;;;;;2.78;2.20;;;;;;;;;;5484125;26;20312;-60
2024/04/16 05:12:07;;;;;;;2.25;2.13;;;;;;;;;;5486380;26;20227;-58
2024/04/16 05:14:33;;;;;;;2.20;2.00;;;;;;;;;;5483773;26;20272;-59
2024/04/16 05:17:01;;;;;;;2.20;2.00;;;;;;;;;;5486729;26;20230;-57
2024/04/16 05:19:26;;;;;;;2.78;2.20;;;;;;;;;;5483994;26;20351;-59
2024/04/16 05:21:57;;;;;;;2.97;2.40;;;;;;;;;;5487021;26;20696;-59
2024/04/16 05:24:23;;;;;;;2.85;2.30;;;;;;;;;;5483973;26;20227;-58
2024/04/16 05:26:51;;;;;;;2.58;2.38;;;;;;;;;;5486740;26;20784;-58
2024/04/16 05:29:16;;;;;;;2.72;2.25;;;;;;;;;;5482421;26;20266;-59
2024/04/16 05:31:45;;;;;;;3.17;2.40;;;;;;;;;;5486363;26;20222;-59
2024/04/16 05:34:10;;;;;;;3.60;2.60;;;;;;;;;;5483851;26;20246;-59
2024/04/16 05:36:38;;;;;;;4.20;2.15;;;;;;;;;;5486287;26;20226;-59
2024/04/16 05:39:07;;;;;;;4.00;2.40;;;;;;;;;;5483563;26;20230;-59
2024/04/16 05:41:35;;;;;;;3.08;2.15;;;;;;;;;;5486101;26;20223;-59
2024/04/16 05:44:01;;;;;;;3.83;2.40;;;;;;;;;;5483738;26;20343;-59
2024/04/16 05:46:29;;;;;;;2.78;2.55;;;;;;;;;;5486092;26;21024;-59
2024/04/16 05:48:54;;;;;;;3.42;2.85;;;;;;;;;;5483851;26;20235;-59
2024/04/16 05:51:22;;;;;;;4.72;3.50;;;;;;;;;;5486075;26;20273;-59
2024/04/16 05:53:48;;;;;;;4.35;2.97;;;;;;;;;;5483247;26;20247;-59
2024/04/16 05:56:19;;;;;;;3.53;3.22;;;;;;;;;;5486070;26;20330;-59
2024/04/16 05:58:44;;;;;;;3.97;2.78;;;;;;;;;;5483255;26;20265;-60
2024/04/16 06:01:13;;;;;;;4.63;2.70;;;;;;;;;;5486103;26;20282;-59
2024/04/16 06:03:38;;;;;;;3.15;2.70;;;;;;;;;;5483282;26;20303;-59
2024/04/16 06:06:07;;;;;;;3.78;2.35;;;;;;;;;;5485902;26;20231;-60
2024/04/16 06:08:32;;;;;;;4.30;2.83;;;;;;;;;;5483115;26;20227;-60
2024/04/16 06:11:01;;;;;;;5.90;2.55;;;;;;;;;;5485970;26;20235;-59
2024/04/16 06:13:29;;;;;;;2.25;2.05;;;;;;;;;;5483608;26;20602;-60
2024/04/16 06:15:57;;;;;;;2.90;2.40;;;;;;;;;;5485706;26;20223;-59
2024/04/16 06:18:23;;;;;;;3.47;2.40;;;;;;;;;;5483062;26;20231;-60
2024/04/16 06:20:52;;;;;;;3.10;2.80;;;;;;;;;;5485497;26;20223;-59
2024/04/16 06:23:17;;;;;;;4.82;2.80;;;;;;;;;;5483495;26;20239;-59
2024/04/16 06:25:45;;;;;;;4.88;2.92;;;;;;;;;;5485445;26;20552;-60
2024/04/16 06:28:11;;;;;;;3.97;2.90;;;;;;;;;;5482980;26;20368;-60
2024/04/16 06:30:42;;;;;;;7.55;2.88;;;;;;;;;;5421838;26;20227;-59
2024/04/16 06:33:07;;;;;;;3.58;2.92;;;;;;;;;;5482754;26;20230;-60
2024/04/16 06:35:35;;;;;;;3.75;3.42;;;;;;;;;;5483578;26;20707;-60
2024/04/16 06:38:01;;;;;;;4.90;2.80;;;;;;;;;;5482486;26;20841;-60
2024/04/16 06:40:30;;;;;;;5.85;3.35;;;;;;;;;;5484704;26;20291;-60
2024/04/16 06:42:55;;;;;;;4.30;2.95;;;;;;;;;;5483194;26;20612;-57
2024/04/16 06:45:23;;;;;;;4.40;3.22;;;;;;;;;;5485534;26;20227;-57
2024/04/16 06:47:52;;;;;;;5.20;3.33;;;;;;;;;;5482576;26;20830;-60
2024/04/16 06:50:20;;;;;;;4.93;2.70;;;;;;;;;;5485224;26;20227;-60
2024/04/16 06:52:45;;;;;;;3.60;2.75;;;;;;;;;;5482420;26;20289;-59
2024/04/16 06:55:14;;;;;;;5.38;2.60;;;;;;;;;;5485168;26;20227;-60
2024/04/16 06:57:39;;;;;;;2.33;2.13;;;;;;;;;;5482458;26;20716;-60
2024/04/16 07:00:10;;;;;;;3.45;2.10;;;;;;;;;;5484834;26;20227;-60
2024/04/16 07:02:36;;;;;;;4.75;2.58;;;;;;;;;;5482191;26;20274;-60
2024/04/16 07:05:07;;;;;;;5.13;2.58;;;;;;;;;;5484770;26;20222;-59
2024/04/16 07:07:33;;;;;;;2.50;2.30;;;;;;;;;;5482437;26;20265;-60
2024/04/16 07:10:01;;;;;;;3.08;2.15;;;;;;;;;;5421169;26;20227;-60
2024/04/16 07:12:28;;;;;;;7.18;2.40;;;;;;;;;;5482433;26;20331;-60
2024/04/16 07:14:56;;;;;;;3.13;2.78;;;;;;;;;;5484632;26;20226;-60
2024/04/16 07:17:22;;;;;;;4.75;2.38;;;;;;;;;;5482071;26;20348;-59
2024/04/16 07:19:51;;;;;;;3.38;2.00;;;;;;;;;;5420816;26;20219;-60
2024/04/16 07:22:19;;;;;;;3.67;2.17;;;;;;;;;;5482174;26;20271;-60
2024/04/16 07:24:47;;;;;;;4.40;2.28;;;;;;;;;;5420921;26;20288;-58
2024/04/16 07:27:13;;;;;;;6.22;3.60;;;;;;;;;;5481767;26;20231;-60
2024/04/16 07:29:41;;;;;;;6.43;3.95;;;;;;;;;;5421069;26;20316;-58
2024/04/16 07:32:06;;;;;;;6.82;4.30;;;;;;;;;;5481773;26;20329;-60
2024/04/16 07:34:34;;;;;;;7.57;4.45;;;;;;;;;;5483357;26;20242;-60
2024/04/16 07:37:00;;;;;;;7.72;5.07;;;;;;;;;;5419917;26;20580;-61
2024/04/16 07:39:31;;;;;;;13.02;4.70;;;;;;;;;;5484235;26;20226;-60
2024/04/16 07:41:56;;;;;;;5.32;3.88;;;;;;;;;;5481830;26;20295;-61
2024/04/16 07:44:25;;;;;;;4.43;3.60;;;;;;;;;;5484089;26;20230;-60
2024/04/16 07:46:50;;;;;;;3.22;2.78;;;;;;;;;;5481106;26;20696;-60
2024/04/16 07:49:18;;;;;;;4.82;3.25;;;;;;;;;;5484068;26;20231;-59
2024/04/16 07:51:44;;;;;;;7.05;3.30;;;;;;;;;;5482782;26;20852;-60
2024/04/16 07:54:12;;;;;;;6.55;3.65;;;;;;;;;;5487202;26;20266;-60
2024/04/16 07:56:40;;;;;;;6.68;3.30;;;;;;;;;;5485144;26;20348;-60
2024/04/16 07:59:08;;;;;;;6.47;3.22;;;;;;;;;;5487378;26;20270;-59
2024/04/16 08:01:34;;;;;;;6.18;3.30;;;;;;;;;;5485803;26;20298;-60
2024/04/16 08:04:02;;;;;;;4.80;3.25;;;;;;;;;;5488204;26;20334;-59
2024/04/16 08:06:28;;;;;;;4.55;3.05;;;;;;;;;;5485365;26;20331;-59
2024/04/16 08:08:56;;;;;;;7.53;3.88;;;;;;;;;;5487663;26;20227;-59
2024/04/16 08:11:22;;;;;;;4.72;3.55;;;;;;;;;;5484900;26;20715;-58
2024/04/16 08:13:53;;;;;;;7.07;3.25;;;;;;;;;;5487267;26;20295;-59
2024/04/16 08:16:19;;;;;;;3.47;2.70;;;;;;;;;;5485024;26;20303;-58
2024/04/16 08:18:47;;;;;;;6.03;3.00;;;;;;;;;;5487348;26;20227;-59
2024/04/16 08:21:13;;;;;;;8.20;2.65;;;;;;;;;;5484928;26;20266;-59
2024/04/16 08:23:41;;;;;;;5.57;3.00;;;;;;;;;;5487320;26;20629;-59
2024/04/16 08:26:07;;;;;;;4.28;2.85;;;;;;;;;;5484640;26;20227;-59
2024/04/16 08:28:35;;;;;;;9.63;4.43;;;;;;;;;;5487233;26;20242;-57
2024/04/16 08:31:03;;;;;;;8.77;3.20;;;;;;;;;;5484726;26;20223;-59
2024/04/16 08:33:31;;;;;;;7.30;3.50;;;;;;;;;;5486791;26;20299;-57
2024/04/16 08:35:57;;;;;;;5.75;3.50;;;;;;;;;;5484717;26;20234;-59
2024/04/16 08:38:25;;;;;;;8.07;3.13;;;;;;;;;;5486776;26;20290;-59
2024/04/16 08:40:51;;;;;;;10.60;4.25;;;;;;;;;;5484642;26;20268;-58
2024/04/16 08:43:19;;;;;;;6.38;3.67;;;;;;;;;;5486937;26;20235;-58
2024/04/16 08:45:44;;;;;;;7.90;4.45;;;;;;;;;;5484793;26;20272;-58
2024/04/16 08:48:16;;;;;;;20.95;5.57;;;;;;;;;;5486884;26;20230;-57
2024/04/16 08:50:43;;;;;;;11.30;5.22;;;;;;;;;;5421106;26;20227;-58
2024/04/16 08:53:11;;;;;;;14.00;5.50;;;;;;;;;;5486674;26;20861;-59
2024/04/16 08:55:39;;;;;;;9.15;4.75;;;;;;;;;;5484440;26;20838;-58
2024/04/16 08:58:07;;;;;;;12.05;4.57;;;;;;;;;;5486860;26;20727;-59
2024/04/16 09:00:33;;;;;;;12.13;5.25;;;;;;;;;;5484419;26;20230;-59
2024/04/16 09:03:02;;;;;;;10.52;4.15;;;;;;;;;;5486523;26;20410;-58
2024/04/16 09:05:30;;;;;;;16.55;4.63;;;;;;;;;;5422180;26;20273;-58
2024/04/16 09:07:58;;;;;;;17.05;6.07;;;;;;;;;;5423461;26;20230;-58
2024/04/16 09:10:25;;;;;;;9.82;4.50;;;;;;;;;;5484062;26;20227;-59
2024/04/16 09:12:53;;;;;;;14.55;4.65;;;;;;;;;;5486552;26;20227;-58
2024/04/16 09:15:19;;;;;;;14.82;5.32;;;;;;;;;;5484005;26;20307;-59
2024/04/16 09:17:48;;;;;;;12.45;5.05;;;;;;;;;;5486034;26;20231;-59
2024/04/16 09:20:15;;;;;;;15.07;4.95;;;;;;;;;;5484264;26;20227;-58
2024/04/16 09:22:46;;;;;;;10.88;4.60;;;;;;;;;;5486575;26;20226;-58
2024/04/16 09:25:11;;;;;;;11.43;4.63;;;;;;;;;;5483894;26;20235;-58
2024/04/16 09:27:40;;;;;;;15.02;5.25;;;;;;;;;;5486960;26;20223;-58
2024/04/16 09:30:06;;;;;;;13.52;4.72;;;;;;;;;;5422275;26;20269;-58
2024/04/16 09:32:34;;;;;;;9.15;4.85;;;;;;;;;;5486488;26;20238;-58
2024/04/16 09:35:00;;;;;;;9.30;4.03;;;;;;;;;;5483827;26;20235;-58
2024/04/16 09:37:28;;;;;;;10.75;4.55;;;;;;;;;;5486500;26;20235;-58
2024/04/16 09:39:58;;;;;;;14.68;4.90;;;;;;;;;;5483848;26;20223;-57
2024/04/16 09:42:27;;;;;;;13.77;4.50;;;;;;;;;;5486447;26;20715;-57
2024/04/16 09:44:54;;;;;;;17.75;5.68;;;;;;;;;;5483536;26;20270;-58
2024/04/16 09:47:24;;;;;;;11.93;4.70;;;;;;;;;;5486198;26;20227;-58
2024/04/16 09:49:54;;;;;;;13.68;4.25;;;;;;;;;;5483507;26;20227;-58
2024/04/16 09:52:22;;;;;;;13.13;4.03;;;;;;;;;;5485995;26;20239;-58
2024/04/16 09:54:48;;;;;;;14.35;5.18;;;;;;;;;;5483532;26;20230;-57
2024/04/16 09:57:21;;;;;;;8.32;4.70;;;;;;;;;;5485946;26;20239;-58
2024/04/16 09:59:48;;;;;;;7.30;4.28;;;;;;;;;;5420355;26;20766;-59
2024/04/16 10:02:16;;;;;;;8.77;4.28;;;;;;;;;;5485826;26;20270;-59
2024/04/16 10:04:42;;;;;;;11.10;4.55;;;;;;;;;;5483317;26;20700;-59
2024/04/16 10:07:10;;;;;;;9.98;4.70;;;;;;;;;;5485751;26;20230;-58
2024/04/16 10:09:36;;;;;;;10.75;4.65;;;;;;;;;;5483239;26;20272;-59
2024/04/16 10:12:04;;;;;;;11.05;4.38;;;;;;;;;;5485726;26;20239;-59
2024/04/16 10:14:33;;;;;;;11.05;4.20;;;;;;;;;;5420190;26;20231;-59
2024/04/16 10:17:01;;;;;;;11.50;5.13;;;;;;;;;;5452655;26;20227;-59
2024/04/16 10:19:28;;;;;;;9.35;4.63;;;;;;;;;;5483319;26;20226;-59
2024/04/16 10:22:01;;;;;;;12.18;4.45;;;;;;;;;;5485620;26;20226;-58
2024/04/16 10:24:29;;;;;;;9.50;3.97;;;;;;;;;;5483484;26;21168;-59
2024/04/16 10:27:01;;;;;;;12.57;5.35;;;;;;;;;;5486068;26;20227;-58
2024/04/16 10:29:27;;;;;;;9.23;4.70;;;;;;;;;;5483252;26;20227;-59
2024/04/16 10:31:58;;;;;;;19.60;6.00;;;;;;;;;;5422530;26;20218;-59
2024/04/16 10:34:24;;;;;;;11.45;4.72;;;;;;;;;;5482978;26;20349;-58
2024/04/16 10:36:53;;;;;;;15.30;4.72;;;;;;;;;;5484939;26;20298;-59
2024/04/16 10:39:19;;;;;;;12.90;4.63;;;;;;;;;;5482696;26;20230;-59
2024/04/16 10:41:54;;;;;;;13.48;4.45;;;;;;;;;;5485097;26;20327;-59
2024/04/16 10:44:20;;;;;;;15.10;4.78;;;;;;;;;;5482974;26;20268;-59
2024/04/16 10:46:50;;;;;;;11.95;4.43;;;;;;;;;;5485195;26;20264;-59
2024/04/16 10:49:22;;;;;;;11.57;4.70;;;;;;;;;;5421010;26;20579;-59
2024/04/16 10:51:50;;;;;;;8.77;4.20;;;;;;;;;;5485193;26;20257;-59
2024/04/16 10:54:16;;;;;;;15.20;5.20;;;;;;;;;;5482636;26;20239;-59
2024/04/16 10:56:45;;;;;;;12.10;5.03;;;;;;;;;;5484901;26;20608;-59
2024/04/16 10:59:12;;;;;;;12.10;4.72;;;;;;;;;;5482548;26;20298;-59
2024/04/16 11:01:40;;;;;;;13.93;5.40;;;;;;;;;;5485007;26;20231;-59
2024/04/16 11:04:07;;;;;;;17.27;5.70;;;;;;;;;;5482098;26;20695;-59
2024/04/16 11:06:38;;;;;;;12.75;5.15;;;;;;;;;;5484931;26;20277;-59
2024/04/16 11:09:03;;;;;;;13.43;5.57;;;;;;;;;;5482196;26;20231;-59
2024/04/16 11:11:32;;;;;;;14.15;4.78;;;;;;;;;;5484420;26;20778;-59
2024/04/16 11:13:57;;;;;;;13.95;4.82;;;;;;;;;;5482310;26;20359;-59
2024/04/16 11:16:26;;;;;;;12.68;4.63;;;;;;;;;;5484341;26;20238;-59
2024/04/16 11:18:52;;;;;;;13.60;4.80;;;;;;;;;;5481895;26;20277;-59
2024/04/16 11:21:21;;;;;;;11.90;4.28;;;;;;;;;;5421025;26;20276;-59
2024/04/16 11:23:49;;;;;;;10.85;4.93;;;;;;;;;;5418594;26;20762;-58
2024/04/16 11:26:18;;;;;;;15.95;5.18;;;;;;;;;;5486470;26;20904;-59
2024/04/16 11:28:43;;;;;;;11.75;5.35;;;;;;;;;;5423761;26;20393;-59
2024/04/16 11:31:12;;;;;;;11.00;4.55;;;;;;;;;;5487643;26;20227;-59
2024/04/16 11:33:38;;;;;;;14.25;4.78;;;;;;;;;;5485417;26;20274;-59
2024/04/16 11:36:08;;;;;;;14.30;4.93;;;;;;;;;;5485877;26;20288;-59
2024/04/16 11:38:33;;;;;;;19.50;6.30;;;;;;;;;;5485193;26;20226;-59
2024/04/16 11:41:04;;;;;;;13.45;5.45;;;;;;;;;;5488140;26;20288;-59
2024/04/16 11:43:30;;;;;;;12.80;5.32;;;;;;;;;;5485092;26;20372;-59
2024/04/16 11:45:59;;;;;;;13.57;5.40;;;;;;;;;;5488164;26;20242;-59
2024/04/16 11:48:25;;;;;;;14.73;4.60;;;;;;;;;;5485643;26;20231;-59
2024/04/16 11:50:53;;;;;;;17.60;5.43;;;;;;;;;;5488355;26;20280;-59
2024/04/16 11:53:19;;;;;;;17.77;5.82;;;;;;;;;;5485432;26;20242;-59
2024/04/16 11:55:47;;;;;;;19.27;6.63;;;;;;;;;;5424226;26;20231;-59
2024/04/16 11:58:15;;;;;;;20.95;6.93;;;;;;;;;;5484863;26;20334;-59
2024/04/16 12:00:44;;;;;;;16.55;5.57;;;;;;;;;;5487523;26;20223;-59
2024/04/16 12:03:09;;;;;;;16.33;5.90;;;;;;;;;;5421593;26;20360;-59
2024/04/16 12:05:38;;;;;;;25.48;6.68;;;;;;;;;;5487480;26;20239;-59
2024/04/16 12:08:04;;;;;;;15.50;5.05;;;;;;;;;;5485025;26;20262;-59
2024/04/16 12:10:32;;;;;;;19.45;6.45;;;;;;;;;;5487377;26;20235;-59
2024/04/16 12:12:58;;;;;;;15.32;5.15;;;;;;;;;;5484933;26;20231;-59
2024/04/16 12:15:30;;;;;;;18.08;6.38;;;;;;;;;;5487607;26;20277;-59
2024/04/16 12:17:56;;;;;;;25.50;6.97;;;;;;;;;;5485031;26;20226;-59
2024/04/16 12:20:24;;;;;;;14.93;5.82;;;;;;;;;;5487192;26;20614;-59
2024/04/16 12:22:49;;;;;;;18.98;6.10;;;;;;;;;;5484557;26;20223;-59
2024/04/16 12:25:18;;;;;;;16.75;5.10;;;;;;;;;;5487332;26;20281;-59
2024/04/16 12:27:43;;;;;;;15.98;6.13;;;;;;;;;;5422497;26;20288;-59
2024/04/16 12:30:12;;;;;;;17.13;6.05;;;;;;;;;;5487167;26;20808;-59
2024/04/16 12:32:40;;;;;;;13.52;6.00;;;;;;;;;;5484631;26;20227;-58
2024/04/16 12:35:09;;;;;;;13.80;4.93;;;;;;;;;;5485769;26;20267;-58
2024/04/16 12:37:34;;;;;;;12.80;5.15;;;;;;;;;;5421987;26;20877;-59
2024/04/16 12:40:02;;;;;;;15.02;6.03;;;;;;;;;;5486872;26;20234;-59
2024/04/16 12:42:28;;;;;;;17.95;6.00;;;;;;;;;;5484477;26;20269;-59
2024/04/16 12:44:56;;;;;;;14.05;5.65;;;;;;;;;;5486864;26;20234;-59
2024/04/16 12:47:22;;;;;;;21.23;6.70;;;;;;;;;;5484466;26;20906;-58
2024/04/16 12:49:53;;;;;;;15.38;5.43;;;;;;;;;;5486982;26;20227;-58
2024/04/16 12:52:18;;;;;;;12.43;5.05;;;;;;;;;;5484535;26;20618;-59
2024/04/16 12:54:46;;;;;;;16.73;5.78;;;;;;;;;;5486787;26;20246;-59
2024/04/16 12:57:12;;;;;;;15.18;5.18;;;;;;;;;;5483949;26;20231;-58
2024/04/16 12:59:40;;;;;;;10.45;4.53;;;;;;;;;;5486968;26;20242;-59
2024/04/16 13:02:06;;;;;;;13.73;5.65;;;;;;;;;;5484132;26;20223;-58
2024/04/16 13:04:35;;;;;;;18.63;6.05;;;;;;;;;;5486686;26;20285;-59
2024/04/16 13:07:04;;;;;;;17.15;5.45;;;;;;;;;;5484018;26;20261;-59
2024/04/16 13:09:32;;;;;;;14.18;5.07;;;;;;;;;;5453376;26;20273;-59
2024/04/16 13:11:58;;;;;;;15.00;5.32;;;;;;;;;;5484127;26;20281;-59
2024/04/16 13:14:26;;;;;;;14.98;5.60;;;;;;;;;;5486428;26;20230;-59
2024/04/16 13:16:52;;;;;;;10.30;5.07;;;;;;;;;;5483988;26;20231;-59
2024/04/16 13:19:20;;;;;;;19.55;6.07;;;;;;;;;;5486485;26;20861;-58
2024/04/16 13:21:46;;;;;;;13.95;5.82;;;;;;;;;;5484075;26;20269;-59
2024/04/16 13:24:17;;;;;;;12.48;4.75;;;;;;;;;;5486292;26;20230;-59
2024/04/16 13:26:43;;;;;;;14.30;5.65;;;;;;;;;;5483823;26;20230;-58
2024/04/16 13:29:11;;;;;;;13.75;5.45;;;;;;;;;;5486097;26;20215;-59
2024/04/16 13:31:37;;;;;;;13.82;5.63;;;;;;;;;;5483792;26;20293;-58
2024/04/16 13:34:05;;;;;;;13.75;5.05;;;;;;;;;;5486114;26;20235;-57
2024/04/16 13:36:31;;;;;;;13.50;5.00;;;;;;;;;;5483884;26;20242;-58
2024/04/16 13:38:59;;;;;;;15.40;5.43;;;;;;;;;;5486368;26;20260;-59
2024/04/16 13:41:28;;;;;;;12.70;4.80;;;;;;;;;;5483621;26;20690;-58
2024/04/16 13:43:56;;;;;;;10.80;5.30;;;;;;;;;;5486352;26;20261;-58
2024/04/16 13:46:22;;;;;;;13.70;4.93;;;;;;;;;;5483599;26;20227;-57
2024/04/16 13:48:50;;;;;;;14.23;5.15;;;;;;;;;;5484639;26;21029;-58
2024/04/16 13:51:16;;;;;;;8.40;4.60;;;;;;;;;;5483639;26;20223;-58
2024/04/16 13:53:44;;;;;;;12.10;4.85;;;;;;;;;;5485812;26;20378;-59
2024/04/16 13:56:10;;;;;;;8.30;4.15;;;;;;;;;;5483739;26;20611;-59
2024/04/16 13:58:41;;;;;;;10.48;4.75;;;;;;;;;;5485930;26;20304;-59
2024/04/16 14:01:06;;;;;;;12.18;5.40;;;;;;;;;;5420195;26;20390;-59
2024/04/16 14:03:34;;;;;;;8.05;4.18;;;;;;;;;;5485734;26;20227;-58
2024/04/16 14:06:01;;;;;;;14.57;5.50;;;;;;;;;;5483441;26;20239;-58
2024/04/16 14:08:30;;;;;;;14.07;6.22;;;;;;;;;;5485777;26;20273;-58
2024/04/16 14:10:55;;;;;;;12.10;5.05;;;;;;;;;;5483362;26;20282;-59
2024/04/16 14:13:24;;;;;;;12.90;4.80;;;;;;;;;;5485617;26;20238;-59
2024/04/16 14:15:52;;;;;;;12.05;5.10;;;;;;;;;;5421025;26;20329;-59
2024/04/16 14:18:20;;;;;;;8.98;4.07;;;;;;;;;;5485548;26;20296;-58
2024/04/16 14:20:46;;;;;;;12.57;4.85;;;;;;;;;;5483117;26;20227;-58
2024/04/16 14:23:14;;;;;;;12.93;5.93;;;;;;;;;;5485300;26;20273;-58
2024/04/16 14:25:40;;;;;;;16.83;6.47;;;;;;;;;;5482823;26;20223;-58
2024/04/16 14:28:08;;;;;;;17.10;6.20;;;;;;;;;;5485632;26;20231;-59
2024/04/16 14:30:34;;;;;;;20.23;6.53;;;;;;;;;;5483171;26;20556;-58
2024/04/16 14:33:07;;;;;;;20.70;6.63;;;;;;;;;;5485685;26;20308;-58
2024/04/16 14:35:33;;;;;;;21.67;6.72;;;;;;;;;;5482784;26;20564;-59
2024/04/16 14:38:02;;;;;;;13.77;5.63;;;;;;;;;;5485420;26;20231;-58
2024/04/16 14:40:27;;;;;;;14.27;5.47;;;;;;;;;;5482742;26;20328;-59
2024/04/16 14:42:56;;;;;;;14.13;5.35;;;;;;;;;;5485357;26;20230;-59